sim
Sign-in with your pilot id or email,
or register
Callsign
Passwort

Schedule Details

Flight Number: OEO6212
Departure: Zurich Airport (LSZH) at 11:15
Arrival: Fuerteventura Airport (GCFV) at 15:55

Weather Information
Getting current METAR information for LSZH 160250Z 00000KT 6000 MIFG NSC M04/M04 Q1030 TEMPO 4000 BR
Getting current METAR information for GCFV 160300Z AUTO 27006KT 9999 NCD 13/11 Q1017

Schedule Frequency

Route Map